Pagrindinis puslapis
METAR-TAF:

METAR-TAF

Oro uostai :

Kečkemėtas, Vengrija

platuma: 46-55N, ilguma: 019-45E, Aukštis: 113 m

Dabartinis oras

Ataskaita buvo paskelbta 30 minutes, ne 11:15 UTC
Vėjas 4 kt nuo kintamojo kryptimis
Temperatūra 18°C
Drėgmė 34%
Slėgis 1027 hPa
Matomumas 10 km arba daugiau
nėra debesų žemiau 1500 m ir nėra kamuolinių lietaus debesų

METAR: LHKE 211115Z VRB04KT CAVOK 18/02 Q1027 NOSIG RMK BLU

Laikas: 13:45 (11:45 UTC)

Prognozė

Ataskaita buvo paskelbta 30 minutes, ne 11:15 UTC
Prognozė galioja nuo 21 metu 12 UTC su 21 metu 21 UTC
Vėjas 2 kt nuo kintamojo kryptimis
Matomumas 10 km arba daugiau
nėra debesų žemiau 1500 m ir nėra kamuolinių lietaus debesų
Laikinai
nuo 21 metu 12 UTC su 21 metu 15 UTC
Vėjas 6 kt iš Pietų/Pietvakarių

TAF: LHKE 211115Z 2112/2121 VRB02KT CAVOK TEMPO 2112/2115 20006KT

Orai ataskaitas ir orų prognozės (METAR, TAF).

turimą stotys yra geltonos ir raudonos taškus žemėlapyje.

Perkelti pele per norėdami pamatyti stoties vardą.

Tada spustelėkite, norėdami matyti oro stebėjimo ir prognozės.

Norėdami pakeisti žemėlapį: spustelėkite ant žalios mygtukų su juodo kryžiaus žemyn,; žalią mygtuką su brūkšneliu, jei norite nutolinti; arba žalių rodyklių gretimoms žemėlapius.


METAR-TAF: